PWSweather.com
Personal Weather Stations
Station Observations
KNYLONGL2
Adirondack Acres, Long Lake, NY 12847

Adirondack AcresLong Lake, NY 12847

Lat: 43.979118, Lon: -74.43445500000001

Elevation: 1650

Station Type: Davis Vantage Pro2

http://www.adirondackacres.com/weather

Latest ConditionsUpdated 9:45:00 PM EST Friday, Jan 17, 2020
Currently Today's Max Today's Min Today's Average
Temperature -7.7°F-22.1°C 6.3°F-14.3°C -7.7°F-22.1°C -0.6°F-18.1°C
Dew Point -11.0°F-23.9°C 2.6°F-16.3°C -11.2°F-24.0°C -5.8°F-21.0°C
Winds Calm Calm 4.0 mph -6.4 kmh - - 1.8 mph 2.9 kmh
Wind Gusts -- 19.0 mph30.6 kmh - -
Humidity 85% 86% 64% 78%
Pressure 30.76 in1041.7 mb 30.77 in1042.0 mb 30.31 in1026.4 mb -
Hour Temp Dew Point Humidity Winds Wind Gusts Pressure Precip Precip Rate Daily Precip Total
09:45 PM -7.7°F-22.1°C -11.0°F-23.9°C 85% Calm Calm -- 30.76 in1041.7 mb 0.00 in0.0 mm 0.00 in0.0 mm 0.00 in0.0 mm
09:40 PM -7.7°F-22.1°C -11.0°F-23.9°C 85% Calm Calm -- 30.76 in1041.7 mb 0.00 in0.0 mm 0.00 in0.0 mm 0.00 in0.0 mm
09:35 PM -7.7°F-22.1°C -11.2°F-24.0°C 84% Calm Calm -- 30.76 in1041.7 mb 0.00 in0.0 mm 0.00 in0.0 mm 0.00 in0.0 mm
09:30 PM -7.7°F-22.1°C -11.2°F-24.0°C 84% Calm Calm -- 30.76 in1041.7 mb 0.00 in0.0 mm 0.00 in0.0 mm 0.00 in0.0 mm
09:25 PM -7.7°F-22.1°C -11.2°F-24.0°C 84% Calm Calm -- 30.76 in1041.7 mb 0.00 in0.0 mm 0.00 in0.0 mm 0.00 in0.0 mm
09:20 PM -7.7°F-22.1°C -11.2°F-24.0°C 84% Calm Calm -- 30.76 in1041.7 mb 0.00 in0.0 mm 0.00 in0.0 mm 0.00 in0.0 mm
09:15 PM -7.6°F-22.0°C -11.1°F-23.9°C 84% Calm Calm -- 30.76 in1041.7 mb 0.00 in0.0 mm 0.00 in0.0 mm 0.00 in0.0 mm
09:10 PM -7.7°F-22.1°C -11.2°F-24.0°C 84% Calm Calm -- 30.75 in1041.3 mb 0.00 in0.0 mm 0.00 in0.0 mm 0.00 in0.0 mm
09:05 PM -7.6°F-22.0°C -11.1°F-23.9°C 84% Calm Calm -- 30.75 in1041.3 mb 0.00 in0.0 mm 0.00 in0.0 mm 0.00 in0.0 mm
09:00 PM -7.5°F-21.9°C -10.8°F-23.8°C 85% Calm Calm -- 30.75 in1041.3 mb 0.00 in0.0 mm 0.00 in0.0 mm 0.00 in0.0 mm
08:55 PM -7.4°F-21.9°C -10.7°F-23.7°C 85% Calm Calm -- 30.75 in1041.3 mb 0.00 in0.0 mm 0.00 in0.0 mm 0.00 in0.0 mm
08:50 PM -7.3°F-21.8°C -10.6°F-23.7°C 85% Calm Calm -- 30.75 in1041.3 mb 0.00 in0.0 mm 0.00 in0.0 mm 0.00 in0.0 mm
08:45 PM -7.2°F-21.8°C -10.5°F-23.6°C 85% Calm Calm -- 30.76 in1041.7 mb 0.00 in0.0 mm 0.00 in0.0 mm 0.00 in0.0 mm
08:40 PM -7.2°F-21.8°C -10.5°F-23.6°C 85% Calm Calm -- 30.76 in1041.7 mb 0.00 in0.0 mm 0.00 in0.0 mm 0.00 in0.0 mm
08:35 PM -7.1°F-21.7°C -10.4°F-23.6°C 85% Calm Calm -- 30.76 in1041.7 mb 0.00 in0.0 mm 0.00 in0.0 mm 0.00 in0.0 mm
08:30 PM -7.0°F-21.7°C -10.3°F-23.5°C 85% Calm Calm -- 30.76 in1041.7 mb 0.00 in0.0 mm 0.00 in0.0 mm 0.00 in0.0 mm
08:25 PM -7.0°F-21.7°C -10.3°F-23.5°C 85% Calm Calm -- 30.77 in1042.0 mb 0.00 in0.0 mm 0.00 in0.0 mm 0.00 in0.0 mm
08:20 PM -6.9°F-21.6°C -10.2°F-23.4°C 85% Calm Calm -- 30.77 in1042.0 mb 0.00 in0.0 mm 0.00 in0.0 mm 0.00 in0.0 mm
08:15 PM -6.9°F-21.6°C -10.2°F-23.4°C 85% Calm Calm -- 30.76 in1041.7 mb 0.00 in0.0 mm 0.00 in0.0 mm 0.00 in0.0 mm
08:10 PM -6.8°F-21.6°C -10.1°F-23.4°C 85% Calm Calm -- 30.76 in1041.7 mb 0.00 in0.0 mm 0.00 in0.0 mm 0.00 in0.0 mm
08:05 PM -6.8°F-21.6°C -10.1°F-23.4°C 85% Calm Calm -- 30.76 in1041.7 mb 0.00 in0.0 mm 0.00 in0.0 mm 0.00 in0.0 mm
08:00 PM -6.7°F-21.5°C -10.0°F-23.3°C 85% Calm Calm -- 30.76 in1041.7 mb 0.00 in0.0 mm 0.00 in0.0 mm 0.00 in0.0 mm
07:55 PM -6.5°F-21.4°C -9.8°F-23.2°C 85% Calm Calm -- 30.76 in1041.7 mb 0.00 in0.0 mm 0.00 in0.0 mm 0.00 in0.0 mm
07:50 PM -6.4°F-21.3°C -9.7°F-23.2°C 85% Calm Calm -- 30.76 in1041.7 mb 0.00 in0.0 mm 0.00 in0.0 mm 0.00 in0.0 mm
07:45 PM -6.3°F-21.3°C -9.6°F-23.1°C 85% Calm Calm -- 30.76 in1041.7 mb 0.00 in0.0 mm 0.00 in0.0 mm 0.00 in0.0 mm
07:40 PM -6.1°F-21.2°C -9.4°F-23.0°C 85% Calm Calm -- 30.76 in1041.7 mb 0.00 in0.0 mm 0.00 in0.0 mm 0.00 in0.0 mm
07:35 PM -5.9°F-21.1°C -9.2°F-22.9°C 85% Calm Calm -- 30.76 in1041.7 mb 0.00 in0.0 mm 0.00 in0.0 mm 0.00 in0.0 mm
07:30 PM -5.8°F-21.0°C -9.1°F-22.8°C 85% Calm Calm -- 30.76 in1041.7 mb 0.00 in0.0 mm 0.00 in0.0 mm 0.00 in0.0 mm
07:25 PM -5.6°F-20.9°C -8.9°F-22.7°C 85% Calm Calm -- 30.76 in1041.7 mb 0.00 in0.0 mm 0.00 in0.0 mm 0.00 in0.0 mm
07:20 PM -5.5°F-20.8°C -8.8°F-22.7°C 85% Calm Calm -- 30.76 in1041.7 mb 0.00 in0.0 mm 0.00 in0.0 mm 0.00 in0.0 mm
07:15 PM -5.4°F-20.8°C -8.7°F-22.6°C 85% Calm Calm -- 30.76 in1041.7 mb 0.00 in0.0 mm 0.00 in0.0 mm 0.00 in0.0 mm
07:10 PM -5.3°F-20.7°C -8.6°F-22.6°C 85% Calm Calm -- 30.76 in1041.7 mb 0.00 in0.0 mm 0.00 in0.0 mm 0.00 in0.0 mm
07:05 PM -5.2°F-20.7°C -8.6°F-22.6°C 85% Calm Calm -- 30.76 in1041.7 mb 0.00 in0.0 mm 0.00 in0.0 mm 0.00 in0.0 mm
07:00 PM -5.0°F-20.6°C -8.4°F-22.4°C 85% Calm Calm -- 30.76 in1041.7 mb 0.00 in0.0 mm 0.00 in0.0 mm 0.00 in0.0 mm
06:55 PM -4.8°F-20.4°C -8.2°F-22.3°C 85% Calm Calm -- 30.76 in1041.7 mb 0.00 in0.0 mm 0.00 in0.0 mm 0.00 in0.0 mm
06:50 PM -4.6°F-20.3°C -8.2°F-22.3°C 84% Calm Calm -- 30.76 in1041.7 mb 0.00 in0.0 mm 0.00 in0.0 mm 0.00 in0.0 mm
06:45 PM -4.3°F-20.2°C -7.9°F-22.2°C 84% Calm Calm -- 30.77 in1042.0 mb 0.00 in0.0 mm 0.00 in0.0 mm 0.00 in0.0 mm
06:40 PM -4.1°F-20.1°C -7.5°F-21.9°C 85% Calm Calm -- 30.76 in1041.7 mb 0.00 in0.0 mm 0.00 in0.0 mm 0.00 in0.0 mm
06:35 PM -4.0°F-20.0°C -7.6°F-22.0°C 84% Calm Calm -- 30.76 in1041.7 mb 0.00 in0.0 mm 0.00 in0.0 mm 0.00 in0.0 mm
06:30 PM -3.9°F-19.9°C -7.5°F-21.9°C 84% Calm Calm -- 30.76 in1041.7 mb 0.00 in0.0 mm 0.00 in0.0 mm 0.00 in0.0 mm
06:25 PM -3.7°F-19.8°C -7.3°F-21.8°C 84% Calm Calm -- 30.75 in1041.3 mb 0.00 in0.0 mm 0.00 in0.0 mm 0.00 in0.0 mm
06:20 PM -3.5°F-19.7°C -7.1°F-21.7°C 84% Calm Calm -- 30.75 in1041.3 mb 0.00 in0.0 mm 0.00 in0.0 mm 0.00 in0.0 mm
06:15 PM -3.2°F-19.6°C -7.1°F-21.7°C 83% Calm Calm -- 30.75 in1041.3 mb 0.00 in0.0 mm 0.00 in0.0 mm 0.00 in0.0 mm
06:10 PM -3.0°F-19.4°C -6.9°F-21.6°C 83% Calm Calm -- 30.75 in1041.3 mb 0.00 in0.0 mm 0.00 in0.0 mm 0.00 in0.0 mm
06:05 PM -2.7°F-19.3°C -6.6°F-21.4°C 83% Calm Calm -- 30.74 in1041.0 mb 0.00 in0.0 mm 0.00 in0.0 mm 0.00 in0.0 mm
06:00 PM -2.4°F-19.1°C -6.3°F-21.3°C 83% Calm Calm -- 30.75 in1041.3 mb 0.00 in0.0 mm 0.00 in0.0 mm 0.00 in0.0 mm
05:55 PM -2.1°F-18.9°C -6.0°F-21.1°C 83% Calm Calm -- 30.75 in1041.3 mb 0.00 in0.0 mm 0.00 in0.0 mm 0.00 in0.0 mm
05:50 PM -1.9°F-18.8°C -6.1°F-21.2°C 82% Calm Calm -- 30.75 in1041.3 mb 0.00 in0.0 mm 0.00 in0.0 mm 0.00 in0.0 mm
05:45 PM -1.6°F-18.7°C -6.0°F-21.1°C 81% Calm Calm -- 30.74 in1041.0 mb 0.00 in0.0 mm 0.00 in0.0 mm 0.00 in0.0 mm
05:40 PM -1.3°F-18.5°C -5.7°F-20.9°C 81% Calm Calm -- 30.73 in1040.6 mb 0.00 in0.0 mm 0.00 in0.0 mm 0.00 in0.0 mm
05:35 PM -0.9°F-18.3°C -5.3°F-20.7°C 81% Calm Calm -- 30.73 in1040.6 mb 0.00 in0.0 mm 0.00 in0.0 mm 0.00 in0.0 mm
05:30 PM -0.6°F-18.1°C -5.3°F-20.7°C 80% Calm Calm -- 30.73 in1040.6 mb 0.00 in0.0 mm 0.00 in0.0 mm 0.00 in0.0 mm
05:25 PM -0.2°F-17.9°C -5.2°F-20.7°C 79% Calm Calm -- 30.73 in1040.6 mb 0.00 in0.0 mm 0.00 in0.0 mm 0.00 in0.0 mm
05:20 PM 0.2°F-17.7°C -4.8°F-20.4°C 79% Calm Calm -- 30.73 in1040.6 mb 0.00 in0.0 mm 0.00 in0.0 mm 0.00 in0.0 mm
05:15 PM 0.6°F-17.4°C -4.9°F-20.5°C 77% Calm Calm -- 30.72 in1040.3 mb 0.00 in0.0 mm 0.00 in0.0 mm 0.00 in0.0 mm
05:10 PM 1.1°F-17.2°C -4.4°F-20.2°C 77% Calm Calm -- 30.73 in1040.6 mb 0.00 in0.0 mm 0.00 in0.0 mm 0.00 in0.0 mm
05:05 PM 1.5°F-16.9°C -4.3°F-20.2°C 76% Calm Calm -- 30.72 in1040.3 mb 0.00 in0.0 mm 0.00 in0.0 mm 0.00 in0.0 mm
05:00 PM 1.9°F-16.7°C -4.2°F-20.1°C 75% Calm Calm -- 30.72 in1040.3 mb 0.00 in0.0 mm 0.00 in0.0 mm 0.00 in0.0 mm
04:55 PM 2.1°F-16.6°C -4.0°F-20.0°C 75% Calm Calm 1.0 mph1.6 kmh 30.72 in1040.3 mb 0.00 in0.0 mm 0.00 in0.0 mm 0.00 in0.0 mm
04:50 PM 2.4°F-16.4°C -3.7°F-19.8°C 75% Calm Calm 1.0 mph1.6 kmh 30.72 in1040.3 mb 0.00 in0.0 mm 0.00 in0.0 mm 0.00 in0.0 mm
04:45 PM 2.8°F-16.2°C -3.6°F-19.8°C 74% Calm Calm 2.0 mph3.2 kmh 30.72 in1040.3 mb 0.00 in0.0 mm 0.00 in0.0 mm 0.00 in0.0 mm
04:40 PM 3.4°F-15.9°C -3.9°F-19.9°C 71% 1.0 mph N1.6 kmh N 2.0 mph3.2 kmh 30.73 in1040.6 mb 0.00 in0.0 mm 0.00 in0.0 mm 0.00 in0.0 mm
04:35 PM 3.7°F-15.7°C -3.6°F-19.8°C 71% 1.0 mph N1.6 kmh N 2.0 mph3.2 kmh 30.73 in1040.6 mb 0.00 in0.0 mm 0.00 in0.0 mm 0.00 in0.0 mm
04:30 PM 4.1°F-15.5°C -3.8°F-19.9°C 69% 1.0 mph NNE1.6 kmh NNE 2.0 mph3.2 kmh 30.72 in1040.3 mb 0.00 in0.0 mm 0.00 in0.0 mm 0.00 in0.0 mm
04:25 PM 4.2°F-15.4°C -3.4°F-19.7°C 70% 1.0 mph NNE1.6 kmh NNE 2.0 mph3.2 kmh 30.72 in1040.3 mb 0.00 in0.0 mm 0.00 in0.0 mm 0.00 in0.0 mm
04:20 PM 4.6°F-15.2°C -3.3°F-19.6°C 69% 1.0 mph NNE1.6 kmh NNE 3.0 mph4.8 kmh 30.71 in1040.0 mb 0.00 in0.0 mm 0.00 in0.0 mm 0.00 in0.0 mm
04:15 PM 4.8°F-15.1°C -3.5°F-19.7°C 68% 1.0 mph NNE1.6 kmh NNE 3.0 mph4.8 kmh 30.71 in1040.0 mb 0.00 in0.0 mm 0.00 in0.0 mm 0.00 in0.0 mm
04:10 PM 5.0°F-15.0°C -3.3°F-19.6°C 68% 1.0 mph NE1.6 kmh NE 3.0 mph4.8 kmh 30.72 in1040.3 mb 0.00 in0.0 mm 0.00 in0.0 mm 0.00 in0.0 mm
04:05 PM 5.0°F-15.0°C -3.3°F-19.6°C 68% 1.0 mph NE1.6 kmh NE 3.0 mph4.8 kmh 30.72 in1040.3 mb 0.00 in0.0 mm 0.00 in0.0 mm 0.00 in0.0 mm
04:00 PM 5.1°F-14.9°C -3.5°F-19.7°C 67% 2.0 mph NE3.2 kmh NE 3.0 mph4.8 kmh 30.73 in1040.6 mb 0.00 in0.0 mm 0.00 in0.0 mm 0.00 in0.0 mm
03:55 PM 5.4°F-14.8°C -3.2°F-19.6°C 67% 2.0 mph NE3.2 kmh NE 5.0 mph8.0 kmh 30.72 in1040.3 mb 0.00 in0.0 mm 0.00 in0.0 mm 0.00 in0.0 mm
03:50 PM 5.8°F-14.6°C -3.1°F-19.5°C 66% 1.0 mph W1.6 kmh W 5.0 mph8.0 kmh 30.73 in1040.6 mb 0.00 in0.0 mm 0.00 in0.0 mm 0.00 in0.0 mm
03:45 PM 5.9°F-14.5°C -3.0°F-19.4°C 66% 2.0 mph SSW3.2 kmh SSW 6.0 mph9.7 kmh 30.73 in1040.6 mb 0.00 in0.0 mm 0.00 in0.0 mm 0.00 in0.0 mm
03:40 PM 5.9°F-14.5°C -3.3°F-19.6°C 65% 2.0 mph S3.2 kmh S 7.0 mph11.3 kmh 30.73 in1040.6 mb 0.00 in0.0 mm 0.00 in0.0 mm 0.00 in0.0 mm
03:35 PM 6.0°F-14.4°C -3.3°F-19.6°C 65% 2.0 mph S3.2 kmh S 7.0 mph11.3 kmh 30.74 in1041.0 mb 0.00 in0.0 mm 0.00 in0.0 mm 0.00 in0.0 mm
03:30 PM 6.0°F-14.4°C -3.3°F-19.6°C 65% 3.0 mph SW4.8 kmh SW 7.0 mph11.3 kmh 30.73 in1040.6 mb 0.00 in0.0 mm 0.00 in0.0 mm 0.00 in0.0 mm
03:25 PM 5.9°F-14.5°C -3.0°F-19.4°C 66% 3.0 mph N4.8 kmh N 8.0 mph12.9 kmh 30.73 in1040.6 mb 0.00 in0.0 mm 0.00 in0.0 mm 0.00 in0.0 mm
03:20 PM 5.9°F-14.5°C -3.3°F-19.6°C 65% 2.0 mph NNE3.2 kmh NNE 8.0 mph12.9 kmh 30.73 in1040.6 mb 0.00 in0.0 mm 0.00 in0.0 mm 0.00 in0.0 mm
03:15 PM 6.1°F-14.4°C -2.8°F-19.3°C 66% 2.0 mph W3.2 kmh W 6.0 mph9.7 kmh 30.73 in1040.6 mb 0.00 in0.0 mm 0.00 in0.0 mm 0.00 in0.0 mm
03:10 PM 6.1°F-14.4°C -2.8°F-19.3°C 66% 3.0 mph SSW4.8 kmh SSW 6.0 mph9.7 kmh 30.73 in1040.6 mb 0.00 in0.0 mm 0.00 in0.0 mm 0.00 in0.0 mm
03:05 PM 6.1°F-14.4°C -3.2°F-19.6°C 65% 3.0 mph S4.8 kmh S 8.0 mph12.9 kmh 30.73 in1040.6 mb 0.00 in0.0 mm 0.00 in0.0 mm 0.00 in0.0 mm
03:00 PM 6.1°F-14.4°C -3.2°F-19.6°C 65% 2.0 mph S3.2 kmh S 8.0 mph12.9 kmh 30.73 in1040.6 mb 0.00 in0.0 mm 0.00 in0.0 mm 0.00 in0.0 mm
02:55 PM 5.9°F-14.5°C -3.3°F-19.6°C 65% 2.0 mph N3.2 kmh N 5.0 mph8.0 kmh 30.73 in1040.6 mb 0.00 in0.0 mm 0.00 in0.0 mm 0.00 in0.0 mm
02:50 PM 5.8°F-14.6°C -3.8°F-19.9°C 64% 2.0 mph N3.2 kmh N 5.0 mph8.0 kmh 30.73 in1040.6 mb 0.00 in0.0 mm 0.00 in0.0 mm 0.00 in0.0 mm
02:45 PM 5.9°F-14.5°C -3.3°F-19.6°C 65% 2.0 mph N3.2 kmh N 5.0 mph8.0 kmh 30.73 in1040.6 mb 0.00 in0.0 mm 0.00 in0.0 mm 0.00 in0.0 mm
02:40 PM 5.9°F-14.5°C -3.7°F-19.8°C 64% 2.0 mph N3.2 kmh N 8.0 mph12.9 kmh 30.72 in1040.3 mb 0.00 in0.0 mm 0.00 in0.0 mm 0.00 in0.0 mm
02:35 PM 6.3°F-14.3°C -3.3°F-19.6°C 64% 2.0 mph NW3.2 kmh NW 8.0 mph12.9 kmh 30.73 in1040.6 mb 0.00 in0.0 mm 0.00 in0.0 mm 0.00 in0.0 mm
02:30 PM 6.2°F-14.3°C -3.1°F-19.5°C 65% 2.0 mph NW3.2 kmh NW 7.0 mph11.3 kmh 30.72 in1040.3 mb 0.00 in0.0 mm 0.00 in0.0 mm 0.00 in0.0 mm
02:25 PM 6.0°F-14.4°C -3.6°F-19.8°C 64% 2.0 mph NW3.2 kmh NW 7.0 mph11.3 kmh 30.72 in1040.3 mb 0.00 in0.0 mm 0.00 in0.0 mm 0.00 in0.0 mm
02:20 PM 6.1°F-14.4°C -3.5°F-19.7°C 64% 2.0 mph NW3.2 kmh NW 6.0 mph9.7 kmh 30.71 in1040.0 mb 0.00 in0.0 mm 0.00 in0.0 mm 0.00 in0.0 mm
02:15 PM 6.3°F-14.3°C -3.3°F-19.6°C 64% 3.0 mph NW4.8 kmh NW 7.0 mph11.3 kmh 30.71 in1040.0 mb 0.00 in0.0 mm 0.00 in0.0 mm 0.00 in0.0 mm
02:10 PM 6.0°F-14.4°C -3.3°F-19.6°C 65% 2.0 mph NW3.2 kmh NW 7.0 mph11.3 kmh 30.71 in1040.0 mb 0.00 in0.0 mm 0.00 in0.0 mm 0.00 in0.0 mm
02:05 PM 5.9°F-14.5°C -3.3°F-19.6°C 65% 2.0 mph N3.2 kmh N 8.0 mph12.9 kmh 30.70 in1039.6 mb 0.00 in0.0 mm 0.00 in0.0 mm 0.00 in0.0 mm
02:00 PM 6.0°F-14.4°C -2.9°F-19.4°C 66% 2.0 mph N3.2 kmh N 8.0 mph12.9 kmh 30.71 in1040.0 mb 0.00 in0.0 mm 0.00 in0.0 mm 0.00 in0.0 mm
01:55 PM 5.9°F-14.5°C -3.0°F-19.4°C 66% 2.0 mph N3.2 kmh N 7.0 mph11.3 kmh 30.71 in1040.0 mb 0.00 in0.0 mm 0.00 in0.0 mm 0.00 in0.0 mm
01:50 PM 5.7°F-14.6°C -3.2°F-19.6°C 66% 3.0 mph NNW4.8 kmh NNW 8.0 mph12.9 kmh 30.71 in1040.0 mb 0.00 in0.0 mm 0.00 in0.0 mm 0.00 in0.0 mm
01:45 PM 5.9°F-14.5°C -3.3°F-19.6°C 65% 3.0 mph SW4.8 kmh SW 8.0 mph12.9 kmh 30.71 in1040.0 mb 0.00 in0.0 mm 0.00 in0.0 mm 0.00 in0.0 mm
01:40 PM 5.8°F-14.6°C -3.8°F-19.9°C 64% 2.0 mph WSW3.2 kmh WSW 6.0 mph9.7 kmh 30.71 in1040.0 mb 0.00 in0.0 mm 0.00 in0.0 mm 0.00 in0.0 mm
01:35 PM 5.7°F-14.6°C -3.5°F-19.7°C 65% 3.0 mph SW4.8 kmh SW 6.0 mph9.7 kmh 30.71 in1040.0 mb 0.00 in0.0 mm 0.00 in0.0 mm 0.00 in0.0 mm
01:30 PM 5.6°F-14.7°C -3.3°F-19.6°C 66% 2.0 mph NNE3.2 kmh NNE 9.0 mph14.5 kmh 30.71 in1040.0 mb 0.00 in0.0 mm 0.00 in0.0 mm 0.00 in0.0 mm
01:25 PM 5.3°F-14.8°C -3.6°F-19.8°C 66% 3.0 mph N4.8 kmh N 9.0 mph14.5 kmh 30.71 in1040.0 mb 0.00 in0.0 mm 0.00 in0.0 mm 0.00 in0.0 mm
01:20 PM 5.1°F-14.9°C -3.8°F-19.9°C 66% 3.0 mph SW4.8 kmh SW 7.0 mph11.3 kmh 30.71 in1040.0 mb 0.00 in0.0 mm 0.00 in0.0 mm 0.00 in0.0 mm
01:15 PM 5.0°F-15.0°C -3.6°F-19.8°C 67% 3.0 mph NE4.8 kmh NE 9.0 mph14.5 kmh 30.71 in1040.0 mb 0.00 in0.0 mm 0.00 in0.0 mm 0.00 in0.0 mm
01:10 PM 4.5°F-15.3°C -4.4°F-20.2°C 66% 3.0 mph N4.8 kmh N 9.0 mph14.5 kmh 30.71 in1040.0 mb 0.00 in0.0 mm 0.00 in0.0 mm 0.00 in0.0 mm
01:05 PM 4.5°F-15.3°C -4.4°F-20.2°C 66% 3.0 mph N4.8 kmh N 9.0 mph14.5 kmh 30.71 in1040.0 mb 0.00 in0.0 mm 0.00 in0.0 mm 0.00 in0.0 mm
01:00 PM 4.7°F-15.2°C -4.2°F-20.1°C 66% 2.0 mph N3.2 kmh N 9.0 mph14.5 kmh 30.72 in1040.3 mb 0.00 in0.0 mm 0.00 in0.0 mm 0.00 in0.0 mm
12:55 PM 5.0°F-15.0°C -3.0°F-19.4°C 69% 2.0 mph NE3.2 kmh NE 7.0 mph11.3 kmh 30.72 in1040.3 mb 0.00 in0.0 mm 0.00 in0.0 mm 0.00 in0.0 mm
12:50 PM 4.4°F-15.3°C -3.5°F-19.7°C 69% 3.0 mph NNE4.8 kmh NNE 7.0 mph11.3 kmh 30.73 in1040.6 mb 0.00 in0.0 mm 0.00 in0.0 mm 0.00 in0.0 mm
12:45 PM 4.0°F-15.6°C -3.6°F-19.8°C 70% 3.0 mph N4.8 kmh N 9.0 mph14.5 kmh 30.73 in1040.6 mb 0.00 in0.0 mm 0.00 in0.0 mm 0.00 in0.0 mm
12:40 PM 3.8°F-15.7°C -4.1°F-20.1°C 69% 4.0 mph NW6.4 kmh NW 9.0 mph14.5 kmh 30.72 in1040.3 mb 0.00 in0.0 mm 0.00 in0.0 mm 0.00 in0.0 mm
12:35 PM 3.6°F-15.8°C -3.7°F-19.8°C 71% 4.0 mph SSW6.4 kmh SSW 11.0 mph17.7 kmh 30.72 in1040.3 mb 0.00 in0.0 mm 0.00 in0.0 mm 0.00 in0.0 mm
12:30 PM 3.4°F-15.9°C -4.2°F-20.1°C 70% 3.0 mph SSW4.8 kmh SSW 11.0 mph17.7 kmh 30.73 in1040.6 mb 0.00 in0.0 mm 0.00 in0.0 mm 0.00 in0.0 mm
12:25 PM 3.2°F-16.0°C -4.1°F-20.1°C 71% 3.0 mph SSW4.8 kmh SSW 6.0 mph9.7 kmh 30.73 in1040.6 mb 0.00 in0.0 mm 0.00 in0.0 mm 0.00 in0.0 mm
12:20 PM 2.8°F-16.2°C -4.5°F-20.3°C 71% 3.0 mph SW4.8 kmh SW 6.0 mph9.7 kmh 30.73 in1040.6 mb 0.00 in0.0 mm 0.00 in0.0 mm 0.00 in0.0 mm
12:15 PM 2.4°F-16.4°C -4.6°F-20.3°C 72% 2.0 mph WSW3.2 kmh WSW 6.0 mph9.7 kmh 30.73 in1040.6 mb 0.00 in0.0 mm 0.00 in0.0 mm 0.00 in0.0 mm
12:10 PM 2.2°F-16.6°C -4.8°F-20.4°C 72% 2.0 mph W3.2 kmh W 5.0 mph8.0 kmh 30.73 in1040.6 mb 0.00 in0.0 mm 0.00 in0.0 mm 0.00 in0.0 mm
12:05 PM 1.8°F-16.8°C -4.9°F-20.5°C 73% 3.0 mph SW4.8 kmh SW 8.0 mph12.9 kmh 30.73 in1040.6 mb 0.00 in0.0 mm 0.00 in0.0 mm 0.00 in0.0 mm
12:00 PM 1.4°F-17.0°C -5.5°F-20.8°C 72% 4.0 mph SSW6.4 kmh SSW 8.0 mph12.9 kmh 30.74 in1041.0 mb 0.00 in0.0 mm 0.00 in0.0 mm 0.00 in0.0 mm
11:55 AM 1.0°F-17.2°C -5.6°F-20.9°C 73% 3.0 mph SW4.8 kmh SW 7.0 mph11.3 kmh 30.74 in1041.0 mb 0.00 in0.0 mm 0.00 in0.0 mm 0.00 in0.0 mm
11:50 AM 0.9°F-17.3°C -5.7°F-20.9°C 73% 4.0 mph SW6.4 kmh SW 10.0 mph16.1 kmh 30.74 in1041.0 mb 0.00 in0.0 mm 0.00 in0.0 mm 0.00 in0.0 mm
11:45 AM 0.8°F-17.3°C -5.8°F-21.0°C 73% 3.0 mph SSW4.8 kmh SSW 10.0 mph16.1 kmh 30.74 in1041.0 mb 0.00 in0.0 mm 0.00 in0.0 mm 0.00 in0.0 mm
11:40 AM 0.9°F-17.3°C -5.7°F-20.9°C 73% 3.0 mph SSW4.8 kmh SSW 8.0 mph12.9 kmh 30.75 in1041.3 mb 0.00 in0.0 mm 0.00 in0.0 mm 0.00 in0.0 mm
11:35 AM 0.6°F-17.4°C -6.0°F-21.1°C 73% 3.0 mph SSW4.8 kmh SSW 6.0 mph9.7 kmh 30.75 in1041.3 mb 0.00 in0.0 mm 0.00 in0.0 mm 0.00 in0.0 mm
11:30 AM 0.6°F-17.4°C -5.7°F-20.9°C 74% 3.0 mph SW4.8 kmh SW 6.0 mph9.7 kmh 30.75 in1041.3 mb 0.00 in0.0 mm 0.00 in0.0 mm 0.00 in0.0 mm
11:25 AM 0.2°F-17.7°C -6.4°F-21.3°C 73% 2.0 mph N3.2 kmh N 6.0 mph9.7 kmh 30.74 in1041.0 mb 0.00 in0.0 mm 0.00 in0.0 mm 0.00 in0.0 mm
11:20 AM 0.2°F-17.7°C -6.7°F-21.5°C 72% 2.0 mph WSW3.2 kmh WSW 5.0 mph8.0 kmh 30.74 in1041.0 mb 0.00 in0.0 mm 0.00 in0.0 mm 0.00 in0.0 mm
11:15 AM 0.4°F-17.6°C -6.2°F-21.2°C 73% 2.0 mph SW3.2 kmh SW 5.0 mph8.0 kmh 30.75 in1041.3 mb 0.00 in0.0 mm 0.00 in0.0 mm 0.00 in0.0 mm
11:10 AM 0.0°F-17.8°C -6.3°F-21.3°C 74% 2.0 mph SW3.2 kmh SW 5.0 mph8.0 kmh 30.74 in1041.0 mb 0.00 in0.0 mm 0.00 in0.0 mm 0.00 in0.0 mm
11:05 AM -0.3°F-17.9°C -6.6°F-21.4°C 74% 2.0 mph SW3.2 kmh SW 5.0 mph8.0 kmh 30.74 in1041.0 mb 0.00 in0.0 mm 0.00 in0.0 mm 0.00 in0.0 mm
11:00 AM -0.6°F-18.1°C -6.6°F-21.4°C 75% 2.0 mph WSW3.2 kmh WSW 6.0 mph9.7 kmh 30.74 in1041.0 mb 0.00 in0.0 mm 0.00 in0.0 mm 0.00 in0.0 mm
10:55 AM -1.2°F-18.4°C -6.9°F-21.6°C 76% 2.0 mph NNW3.2 kmh NNW 7.0 mph11.3 kmh 30.74 in1041.0 mb 0.00 in0.0 mm 0.00 in0.0 mm 0.00 in0.0 mm
10:50 AM -1.7°F-18.7°C -7.7°F-22.1°C 75% 2.0 mph WNW3.2 kmh WNW 8.0 mph12.9 kmh 30.75 in1041.3 mb 0.00 in0.0 mm 0.00 in0.0 mm 0.00 in0.0 mm
10:45 AM -2.0°F-18.9°C -7.7°F-22.1°C 76% 3.0 mph WNW4.8 kmh WNW 8.0 mph12.9 kmh 30.75 in1041.3 mb 0.00 in0.0 mm 0.00 in0.0 mm 0.00 in0.0 mm
10:40 AM -2.5°F-19.2°C -8.2°F-22.3°C 76% 3.0 mph N4.8 kmh N 8.0 mph12.9 kmh 30.75 in1041.3 mb 0.00 in0.0 mm 0.00 in0.0 mm 0.00 in0.0 mm
10:35 AM -2.7°F-19.3°C -8.1°F-22.3°C 77% 3.0 mph WNW4.8 kmh WNW 6.0 mph9.7 kmh 30.75 in1041.3 mb 0.00 in0.0 mm 0.00 in0.0 mm 0.00 in0.0 mm
10:30 AM -2.9°F-19.4°C -8.1°F-22.3°C 78% 2.0 mph WSW3.2 kmh WSW 6.0 mph9.7 kmh 30.75 in1041.3 mb 0.00 in0.0 mm 0.00 in0.0 mm 0.00 in0.0 mm
10:25 AM -3.3°F-19.6°C -8.4°F-22.4°C 78% 3.0 mph WSW4.8 kmh WSW 9.0 mph14.5 kmh 30.74 in1041.0 mb 0.00 in0.0 mm 0.00 in0.0 mm 0.00 in0.0 mm
10:20 AM -3.7°F-19.8°C -8.8°F-22.7°C 78% 2.0 mph W3.2 kmh W 9.0 mph14.5 kmh 30.74 in1041.0 mb 0.00 in0.0 mm 0.00 in0.0 mm 0.00 in0.0 mm
10:15 AM -3.9°F-19.9°C -8.8°F-22.7°C 79% 2.0 mph NW3.2 kmh NW 7.0 mph11.3 kmh 30.74 in1041.0 mb 0.00 in0.0 mm 0.00 in0.0 mm 0.00 in0.0 mm
10:10 AM -4.0°F-20.0°C -8.9°F-22.7°C 79% 3.0 mph N4.8 kmh N 7.0 mph11.3 kmh 30.74 in1041.0 mb 0.00 in0.0 mm 0.00 in0.0 mm 0.00 in0.0 mm
10:05 AM -4.0°F-20.0°C -8.9°F-22.7°C 79% 3.0 mph NNW4.8 kmh NNW 6.0 mph9.7 kmh 30.74 in1041.0 mb 0.00 in0.0 mm 0.00 in0.0 mm 0.00 in0.0 mm
10:00 AM -4.3°F-20.2°C -8.9°F-22.7°C 80% 3.0 mph NW4.8 kmh NW 8.0 mph12.9 kmh 30.74 in1041.0 mb 0.00 in0.0 mm 0.00 in0.0 mm 0.00 in0.0 mm
09:55 AM -4.6°F-20.3°C -9.2°F-22.9°C 80% 3.0 mph NW4.8 kmh NW 8.0 mph12.9 kmh 30.74 in1041.0 mb 0.00 in0.0 mm 0.00 in0.0 mm 0.00 in0.0 mm
09:50 AM -4.8°F-20.4°C -9.4°F-23.0°C 80% 3.0 mph NW4.8 kmh NW 6.0 mph9.7 kmh 30.74 in1041.0 mb 0.00 in0.0 mm 0.00 in0.0 mm 0.00 in0.0 mm
09:45 AM -5.0°F-20.6°C -9.3°F-22.9°C 81% 2.0 mph NNW3.2 kmh NNW 8.0 mph12.9 kmh 30.73 in1040.6 mb 0.00 in0.0 mm 0.00 in0.0 mm 0.00 in0.0 mm
09:40 AM -5.2°F-20.7°C -9.5°F-23.1°C 81% 2.0 mph NNW3.2 kmh NNW 8.0 mph12.9 kmh 30.74 in1041.0 mb 0.00 in0.0 mm 0.00 in0.0 mm 0.00 in0.0 mm
09:35 AM -5.4°F-20.8°C -9.7°F-23.2°C 81% 2.0 mph NNW3.2 kmh NNW 8.0 mph12.9 kmh 30.73 in1040.6 mb 0.00 in0.0 mm 0.00 in0.0 mm 0.00 in0.0 mm
09:30 AM -5.4°F-20.8°C -9.7°F-23.2°C 81% 3.0 mph NNW4.8 kmh NNW 8.0 mph12.9 kmh 30.73 in1040.6 mb 0.00 in0.0 mm 0.00 in0.0 mm 0.00 in0.0 mm
09:25 AM -5.4°F-20.8°C -9.7°F-23.2°C 81% 2.0 mph NW3.2 kmh NW 7.0 mph11.3 kmh 30.73 in1040.6 mb 0.00 in0.0 mm 0.00 in0.0 mm 0.00 in0.0 mm
09:20 AM -5.4°F-20.8°C -9.5°F-23.1°C 82% 2.0 mph W3.2 kmh W 7.0 mph11.3 kmh 30.72 in1040.3 mb 0.00 in0.0 mm 0.00 in0.0 mm 0.00 in0.0 mm
09:15 AM -5.6°F-20.9°C -9.7°F-23.2°C 82% 2.0 mph NW3.2 kmh NW 4.0 mph6.4 kmh 30.72 in1040.3 mb 0.00 in0.0 mm 0.00 in0.0 mm 0.00 in0.0 mm
09:10 AM -5.7°F-20.9°C -10.0°F-23.3°C 81% 2.0 mph NNW3.2 kmh NNW 4.0 mph6.4 kmh 30.72 in1040.3 mb 0.00 in0.0 mm 0.00 in0.0 mm 0.00 in0.0 mm
09:05 AM -5.7°F-20.9°C -9.8°F-23.2°C 82% 1.0 mph NW1.6 kmh NW 4.0 mph6.4 kmh 30.71 in1040.0 mb 0.00 in0.0 mm 0.00 in0.0 mm 0.00 in0.0 mm
09:00 AM -5.7°F-20.9°C -9.8°F-23.2°C 82% 1.0 mph WNW1.6 kmh WNW 4.0 mph6.4 kmh 30.71 in1040.0 mb 0.00 in0.0 mm 0.00 in0.0 mm 0.00 in0.0 mm
08:55 AM -5.8°F-21.0°C -9.9°F-23.3°C 82% 1.0 mph WNW1.6 kmh WNW 4.0 mph6.4 kmh 30.71 in1040.0 mb 0.00 in0.0 mm 0.00 in0.0 mm 0.00 in0.0 mm
08:50 AM -5.8°F-21.0°C -9.9°F-23.3°C 82% 2.0 mph WNW3.2 kmh WNW 8.0 mph12.9 kmh 30.71 in1040.0 mb 0.00 in0.0 mm 0.00 in0.0 mm 0.00 in0.0 mm
08:45 AM -5.8°F-21.0°C -9.9°F-23.3°C 82% 2.0 mph WNW3.2 kmh WNW 8.0 mph12.9 kmh 30.71 in1040.0 mb 0.00 in0.0 mm 0.00 in0.0 mm 0.00 in0.0 mm
08:40 AM -5.9°F-21.1°C -10.0°F-23.3°C 82% 2.0 mph NW3.2 kmh NW 4.0 mph6.4 kmh 30.71 in1040.0 mb 0.00 in0.0 mm 0.00 in0.0 mm 0.00 in0.0 mm
08:35 AM -6.0°F-21.1°C -9.8°F-23.2°C 83% 1.0 mph N1.6 kmh N 3.0 mph4.8 kmh 30.70 in1039.6 mb 0.00 in0.0 mm 0.00 in0.0 mm 0.00 in0.0 mm
08:30 AM -6.1°F-21.2°C -9.9°F-23.3°C 83% 1.0 mph NE1.6 kmh NE 3.0 mph4.8 kmh 30.70 in1039.6 mb 0.00 in0.0 mm 0.00 in0.0 mm 0.00 in0.0 mm
08:25 AM -6.3°F-21.3°C -10.4°F-23.6°C 82% 1.0 mph NNE1.6 kmh NNE 2.0 mph3.2 kmh 30.70 in1039.6 mb 0.00 in0.0 mm 0.00 in0.0 mm 0.00 in0.0 mm
08:20 AM -6.3°F-21.3°C -10.4°F-23.6°C 82% 1.0 mph N1.6 kmh N 2.0 mph3.2 kmh 30.70 in1039.6 mb 0.00 in0.0 mm 0.00 in0.0 mm 0.00 in0.0 mm
08:15 AM -6.4°F-21.3°C -10.5°F-23.6°C 82% 2.0 mph N3.2 kmh N 4.0 mph6.4 kmh 30.70 in1039.6 mb 0.00 in0.0 mm 0.00 in0.0 mm 0.00 in0.0 mm
08:10 AM -6.5°F-21.4°C -10.6°F-23.7°C 82% 2.0 mph NNW3.2 kmh NNW 4.0 mph6.4 kmh 30.69 in1039.3 mb 0.00 in0.0 mm 0.00 in0.0 mm 0.00 in0.0 mm
08:05 AM -6.6°F-21.4°C -10.7°F-23.7°C 82% 1.0 mph NW1.6 kmh NW 5.0 mph8.0 kmh 30.69 in1039.3 mb 0.00 in0.0 mm 0.00 in0.0 mm 0.00 in0.0 mm
08:00 AM -6.6°F-21.4°C -10.7°F-23.7°C 82% 1.0 mph NW1.6 kmh NW 5.0 mph8.0 kmh 30.68 in1038.9 mb 0.00 in0.0 mm 0.00 in0.0 mm 0.00 in0.0 mm
07:55 AM -6.5°F-21.4°C -10.6°F-23.7°C 82% 2.0 mph WNW3.2 kmh WNW 5.0 mph8.0 kmh 30.68 in1038.9 mb 0.00 in0.0 mm 0.00 in0.0 mm 0.00 in0.0 mm
07:50 AM -6.4°F-21.3°C -10.5°F-23.6°C 82% 2.0 mph W3.2 kmh W 5.0 mph8.0 kmh 30.68 in1038.9 mb 0.00 in0.0 mm 0.00 in0.0 mm 0.00 in0.0 mm
07:45 AM -6.4°F-21.3°C -10.5°F-23.6°C 82% 1.0 mph SW1.6 kmh SW 3.0 mph4.8 kmh 30.68 in1038.9 mb 0.00 in0.0 mm 0.00 in0.0 mm 0.00 in0.0 mm
07:40 AM -6.3°F-21.3°C -10.4°F-23.6°C 82% 1.0 mph WSW1.6 kmh WSW 3.0 mph4.8 kmh 30.68 in1038.9 mb 0.00 in0.0 mm 0.00 in0.0 mm 0.00 in0.0 mm
07:35 AM -6.2°F-21.2°C -10.3°F-23.5°C 82% 1.0 mph W1.6 kmh W 3.0 mph4.8 kmh 30.68 in1038.9 mb 0.00 in0.0 mm 0.00 in0.0 mm 0.00 in0.0 mm
07:30 AM -6.1°F-21.2°C -10.2°F-23.4°C 82% 1.0 mph W1.6 kmh W 7.0 mph11.3 kmh 30.67 in1038.6 mb 0.00 in0.0 mm 0.00 in0.0 mm 0.00 in0.0 mm
07:25 AM -6.0°F-21.1°C -10.1°F-23.4°C 82% 2.0 mph NW3.2 kmh NW 7.0 mph11.3 kmh 30.67 in1038.6 mb 0.00 in0.0 mm 0.00 in0.0 mm 0.00 in0.0 mm
07:20 AM -5.9°F-21.1°C -10.0°F-23.3°C 82% 2.0 mph NW3.2 kmh NW 5.0 mph8.0 kmh 30.66 in1038.3 mb 0.00 in0.0 mm 0.00 in0.0 mm 0.00 in0.0 mm
07:15 AM -5.8°F-21.0°C -9.9°F-23.3°C 82% 2.0 mph NW3.2 kmh NW 5.0 mph8.0 kmh 30.66 in1038.3 mb 0.00 in0.0 mm 0.00 in0.0 mm 0.00 in0.0 mm
07:10 AM -5.8°F-21.0°C -9.9°F-23.3°C 82% 2.0 mph NNW3.2 kmh NNW 5.0 mph8.0 kmh 30.65 in1037.9 mb 0.00 in0.0 mm 0.00 in0.0 mm 0.00 in0.0 mm
07:05 AM -5.7°F-20.9°C -9.8°F-23.2°C 82% 2.0 mph NNW3.2 kmh NNW 5.0 mph8.0 kmh 30.65 in1037.9 mb 0.00 in0.0 mm 0.00 in0.0 mm 0.00 in0.0 mm
07:00 AM -5.5°F-20.8°C -9.6°F-23.1°C 82% 2.0 mph NW3.2 kmh NW 4.0 mph6.4 kmh 30.65 in1037.9 mb 0.00 in0.0 mm 0.00 in0.0 mm 0.00 in0.0 mm
06:55 AM -5.4°F-20.8°C -9.5°F-23.1°C 82% 2.0 mph NW3.2 kmh NW 6.0 mph9.7 kmh 30.65 in1037.9 mb 0.00 in0.0 mm 0.00 in0.0 mm 0.00 in0.0 mm
06:50 AM -5.3°F-20.7°C -9.4°F-23.0°C 82% 2.0 mph NW3.2 kmh NW 6.0 mph9.7 kmh 30.64 in1037.6 mb 0.00 in0.0 mm 0.00 in0.0 mm 0.00 in0.0 mm
06:45 AM -5.2°F-20.7°C -9.3°F-22.9°C 82% 2.0 mph WNW3.2 kmh WNW 4.0 mph6.4 kmh 30.64 in1037.6 mb 0.00 in0.0 mm 0.00 in0.0 mm 0.00 in0.0 mm
06:40 AM -5.2°F-20.7°C -9.3°F-22.9°C 82% 2.0 mph W3.2 kmh W 4.0 mph6.4 kmh 30.64 in1037.6 mb 0.00 in0.0 mm 0.00 in0.0 mm 0.00 in0.0 mm
06:35 AM -5.2°F-20.7°C -9.3°F-22.9°C 82% 1.0 mph W1.6 kmh W 2.0 mph3.2 kmh 30.63 in1037.3 mb 0.00 in0.0 mm 0.00 in0.0 mm 0.00 in0.0 mm
06:30 AM -5.0°F-20.6°C -9.1°F-22.8°C 82% 1.0 mph NW1.6 kmh NW 5.0 mph8.0 kmh 30.62 in1036.9 mb 0.00 in0.0 mm 0.00 in0.0 mm 0.00 in0.0 mm
06:25 AM -4.9°F-20.5°C -9.0°F-22.8°C 82% 1.0 mph NW1.6 kmh NW 5.0 mph8.0 kmh 30.62 in1036.9 mb 0.00 in0.0 mm 0.00 in0.0 mm 0.00 in0.0 mm
06:20 AM -4.8°F-20.4°C -8.9°F-22.7°C 82% 1.0 mph WNW1.6 kmh WNW 5.0 mph8.0 kmh 30.62 in1036.9 mb 0.00 in0.0 mm 0.00 in0.0 mm 0.00 in0.0 mm
06:15 AM -4.6°F-20.3°C -8.7°F-22.6°C 82% 1.0 mph WSW1.6 kmh WSW 6.0 mph9.7 kmh 30.62 in1036.9 mb 0.00 in0.0 mm 0.00 in0.0 mm 0.00 in0.0 mm
06:10 AM -4.5°F-20.3°C -8.8°F-22.7°C 81% 2.0 mph W3.2 kmh W 6.0 mph9.7 kmh 30.61 in1036.6 mb 0.00 in0.0 mm 0.00 in0.0 mm 0.00 in0.0 mm
06:05 AM -4.4°F-20.2°C -8.8°F-22.7°C 81% 1.0 mph N1.6 kmh N 6.0 mph9.7 kmh 30.61 in1036.6 mb 0.00 in0.0 mm 0.00 in0.0 mm 0.00 in0.0 mm
06:00 AM -4.3°F-20.2°C -8.7°F-22.6°C 81% 1.0 mph N1.6 kmh N 5.0 mph8.0 kmh 30.61 in1036.6 mb 0.00 in0.0 mm 0.00 in0.0 mm 0.00 in0.0 mm
05:55 AM -4.1°F-20.1°C -8.5°F-22.5°C 81% 2.0 mph N3.2 kmh N 12.0 mph19.3 kmh 30.60 in1036.2 mb 0.00 in0.0 mm 0.00 in0.0 mm 0.00 in0.0 mm
05:50 AM -4.0°F-20.0°C -8.4°F-22.4°C 81% 2.0 mph NNW3.2 kmh NNW 12.0 mph19.3 kmh 30.60 in1036.2 mb 0.00 in0.0 mm 0.00 in0.0 mm 0.00 in0.0 mm
05:45 AM -3.7°F-19.8°C -8.1°F-22.3°C 81% 3.0 mph N4.8 kmh N 10.0 mph16.1 kmh 30.59 in1035.9 mb 0.00 in0.0 mm 0.00 in0.0 mm 0.00 in0.0 mm
05:40 AM -3.5°F-19.7°C -7.9°F-22.2°C 81% 3.0 mph NNW4.8 kmh NNW 10.0 mph16.1 kmh 30.58 in1035.6 mb 0.00 in0.0 mm 0.00 in0.0 mm 0.00 in0.0 mm
05:35 AM -3.4°F-19.7°C -7.8°F-22.1°C 81% 3.0 mph NNW4.8 kmh NNW 8.0 mph12.9 kmh 30.58 in1035.6 mb 0.00 in0.0 mm 0.00 in0.0 mm 0.00 in0.0 mm
05:30 AM -3.1°F-19.5°C -7.5°F-21.9°C 81% 3.0 mph N4.8 kmh N 11.0 mph17.7 kmh 30.58 in1035.6 mb 0.00 in0.0 mm 0.00 in0.0 mm 0.00 in0.0 mm
05:25 AM -2.9°F-19.4°C -7.3°F-21.8°C 81% 3.0 mph N4.8 kmh N 11.0 mph17.7 kmh 30.57 in1035.2 mb 0.00 in0.0 mm 0.00 in0.0 mm 0.00 in0.0 mm
05:20 AM -2.6°F-19.2°C -7.0°F-21.7°C 81% 3.0 mph NNW4.8 kmh NNW 7.0 mph11.3 kmh 30.57 in1035.2 mb 0.00 in0.0 mm 0.00 in0.0 mm 0.00 in0.0 mm
05:15 AM -2.5°F-19.2°C -6.6°F-21.4°C 82% 2.0 mph N3.2 kmh N 6.0 mph9.7 kmh 30.57 in1035.2 mb 0.00 in0.0 mm 0.00 in0.0 mm 0.00 in0.0 mm
05:10 AM -2.3°F-19.1°C -6.4°F-21.3°C 82% 2.0 mph N3.2 kmh N 6.0 mph9.7 kmh 30.56 in1034.9 mb 0.00 in0.0 mm 0.00 in0.0 mm 0.00 in0.0 mm
05:05 AM -2.2°F-19.0°C -6.3°F-21.3°C 82% 3.0 mph NNE4.8 kmh NNE 7.0 mph11.3 kmh 30.55 in1034.5 mb 0.00 in0.0 mm 0.00 in0.0 mm 0.00 in0.0 mm
05:00 AM -2.1°F-18.9°C -6.2°F-21.2°C 82% 3.0 mph NE4.8 kmh NE 7.0 mph11.3 kmh 30.55 in1034.5 mb 0.00 in0.0 mm 0.00 in0.0 mm 0.00 in0.0 mm
04:55 AM -2.0°F-18.9°C -6.1°F-21.2°C 82% 3.0 mph NE4.8 kmh NE 5.0 mph8.0 kmh 30.55 in1034.5 mb 0.00 in0.0 mm 0.00 in0.0 mm 0.00 in0.0 mm
04:50 AM -1.9°F-18.8°C -6.1°F-21.2°C 82% 2.0 mph NE3.2 kmh NE 5.0 mph8.0 kmh 30.54 in1034.2 mb 0.00 in0.0 mm 0.00 in0.0 mm 0.00 in0.0 mm
04:45 AM -1.9°F-18.8°C -6.1°F-21.2°C 82% 2.0 mph NE3.2 kmh NE 6.0 mph9.7 kmh 30.54 in1034.2 mb 0.00 in0.0 mm 0.00 in0.0 mm 0.00 in0.0 mm
04:40 AM -1.8°F-18.8°C -6.0°F-21.1°C 82% 2.0 mph NE3.2 kmh NE 6.0 mph9.7 kmh 30.53 in1033.9 mb 0.00 in0.0 mm 0.00 in0.0 mm 0.00 in0.0 mm
04:35 AM -1.7°F-18.7°C -6.1°F-21.2°C 81% 3.0 mph NE4.8 kmh NE 9.0 mph14.5 kmh 30.54 in1034.2 mb 0.00 in0.0 mm 0.00 in0.0 mm 0.00 in0.0 mm
04:30 AM -1.5°F-18.6°C -5.9°F-21.1°C 81% 3.0 mph NE4.8 kmh NE 9.0 mph14.5 kmh 30.53 in1033.9 mb 0.00 in0.0 mm 0.00 in0.0 mm 0.00 in0.0 mm
04:25 AM -1.4°F-18.6°C -5.8°F-21.0°C 81% 3.0 mph NE4.8 kmh NE 7.0 mph11.3 kmh 30.53 in1033.9 mb 0.00 in0.0 mm 0.00 in0.0 mm 0.00 in0.0 mm
04:20 AM -1.1°F-18.4°C -5.5°F-20.8°C 81% 3.0 mph NNE4.8 kmh NNE 13.0 mph20.9 kmh 30.52 in1033.5 mb 0.00 in0.0 mm 0.00 in0.0 mm 0.00 in0.0 mm
04:15 AM -0.8°F-18.2°C -5.5°F-20.8°C 80% 2.0 mph NE3.2 kmh NE 13.0 mph20.9 kmh 30.52 in1033.5 mb 0.00 in0.0 mm 0.00 in0.0 mm 0.00 in0.0 mm
04:10 AM -0.4°F-18.0°C -5.1°F-20.6°C 80% 2.0 mph NNE3.2 kmh NNE 9.0 mph14.5 kmh 30.52 in1033.5 mb 0.00 in0.0 mm 0.00 in0.0 mm 0.00 in0.0 mm
04:05 AM -0.1°F-17.8°C -4.8°F-20.4°C 80% 3.0 mph N4.8 kmh N 8.0 mph12.9 kmh 30.52 in1033.5 mb 0.00 in0.0 mm 0.00 in0.0 mm 0.00 in0.0 mm
04:00 AM 0.2°F-17.7°C -4.3°F-20.2°C 81% 2.0 mph N3.2 kmh N 9.0 mph14.5 kmh 30.51 in1033.2 mb 0.00 in0.0 mm 0.00 in0.0 mm 0.00 in0.0 mm
03:55 AM 0.5°F-17.5°C -3.7°F-19.8°C 82% 2.0 mph NNE3.2 kmh NNE 9.0 mph14.5 kmh 30.52 in1033.5 mb 0.00 in0.0 mm 0.00 in0.0 mm 0.00 in0.0 mm
03:50 AM 0.8°F-17.3°C -3.2°F-19.6°C 83% 1.0 mph N1.6 kmh N 7.0 mph11.3 kmh 30.51 in1033.2 mb 0.00 in0.0 mm 0.00 in0.0 mm 0.00 in0.0 mm
03:45 AM 0.8°F-17.3°C -3.2°F-19.6°C 83% 2.0 mph N3.2 kmh N 9.0 mph14.5 kmh 30.51 in1033.2 mb 0.00 in0.0 mm 0.00 in0.0 mm 0.00 in0.0 mm
03:40 AM 0.9°F-17.3°C -3.1°F-19.5°C 83% 3.0 mph NE4.8 kmh NE 9.0 mph14.5 kmh 30.50 in1032.8 mb 0.00 in0.0 mm 0.00 in0.0 mm 0.00 in0.0 mm
03:35 AM 0.9°F-17.3°C -3.3°F-19.6°C 82% 4.0 mph NE6.4 kmh NE 12.0 mph19.3 kmh 30.50 in1032.8 mb 0.00 in0.0 mm 0.00 in0.0 mm 0.00 in0.0 mm
03:30 AM 1.0°F-17.2°C -3.5°F-19.7°C 81% 4.0 mph NNE6.4 kmh NNE 19.0 mph30.6 kmh 30.49 in1032.5 mb 0.00 in0.0 mm 0.00 in0.0 mm 0.00 in0.0 mm
03:25 AM 1.0°F-17.2°C -3.5°F-19.7°C 81% 4.0 mph N6.4 kmh N 19.0 mph30.6 kmh 30.49 in1032.5 mb 0.00 in0.0 mm 0.00 in0.0 mm 0.00 in0.0 mm
03:20 AM 1.2°F-17.1°C -3.3°F-19.6°C 81% 3.0 mph NNW4.8 kmh NNW 8.0 mph12.9 kmh 30.49 in1032.5 mb 0.00 in0.0 mm 0.00 in0.0 mm 0.00 in0.0 mm
03:15 AM 1.4°F-17.0°C -3.1°F-19.5°C 81% 3.0 mph N4.8 kmh N 9.0 mph14.5 kmh 30.48 in1032.2 mb 0.00 in0.0 mm 0.00 in0.0 mm 0.00 in0.0 mm
03:10 AM 1.7°F-16.8°C -2.5°F-19.2°C 82% 3.0 mph N4.8 kmh N 9.0 mph14.5 kmh 30.48 in1032.2 mb 0.00 in0.0 mm 0.00 in0.0 mm 0.00 in0.0 mm
03:05 AM 1.8°F-16.8°C -2.4°F-19.1°C 82% 3.0 mph N4.8 kmh N 9.0 mph14.5 kmh 30.47 in1031.8 mb 0.00 in0.0 mm 0.00 in0.0 mm 0.00 in0.0 mm
03:00 AM 1.9°F-16.7°C -2.3°F-19.1°C 82% 2.0 mph N3.2 kmh N 7.0 mph11.3 kmh 30.47 in1031.8 mb 0.00 in0.0 mm 0.00 in0.0 mm 0.00 in0.0 mm
02:55 AM 2.0°F-16.7°C -2.2°F-19.0°C 82% 3.0 mph NW4.8 kmh NW 9.0 mph14.5 kmh 30.46 in1031.5 mb 0.00 in0.0 mm 0.00 in0.0 mm 0.00 in0.0 mm
02:50 AM 2.3°F-16.5°C -1.7°F-18.7°C 83% 2.0 mph NW3.2 kmh NW 9.0 mph14.5 kmh 30.46 in1031.5 mb 0.00 in0.0 mm 0.00 in0.0 mm 0.00 in0.0 mm
02:45 AM 2.5°F-16.4°C -1.5°F-18.6°C 83% 2.0 mph NNW3.2 kmh NNW 8.0 mph12.9 kmh 30.46 in1031.5 mb 0.00 in0.0 mm 0.00 in0.0 mm 0.00 in0.0 mm
02:40 AM 2.7°F-16.3°C -1.3°F-18.5°C 83% 2.0 mph NW3.2 kmh NW 8.0 mph12.9 kmh 30.46 in1031.5 mb 0.00 in0.0 mm 0.00 in0.0 mm 0.00 in0.0 mm
02:35 AM 2.9°F-16.2°C -0.8°F-18.2°C 84% 2.0 mph NW3.2 kmh NW 4.0 mph6.4 kmh 30.45 in1031.2 mb 0.00 in0.0 mm 0.00 in0.0 mm 0.00 in0.0 mm
02:30 AM 2.8°F-16.2°C -1.2°F-18.4°C 83% 2.0 mph NW3.2 kmh NW 5.0 mph8.0 kmh 30.45 in1031.2 mb 0.00 in0.0 mm 0.00 in0.0 mm 0.00 in0.0 mm
02:25 AM 2.8°F-16.2°C -1.4°F-18.6°C 82% 2.0 mph WNW3.2 kmh WNW 5.0 mph8.0 kmh 30.44 in1030.8 mb 0.00 in0.0 mm 0.00 in0.0 mm 0.00 in0.0 mm
02:20 AM 2.9°F-16.2°C -1.3°F-18.5°C 82% 3.0 mph N4.8 kmh N 7.0 mph11.3 kmh 30.43 in1030.5 mb 0.00 in0.0 mm 0.00 in0.0 mm 0.00 in0.0 mm
02:15 AM 3.0°F-16.1°C -1.5°F-18.6°C 81% 3.0 mph NE4.8 kmh NE 10.0 mph16.1 kmh 30.43 in1030.5 mb 0.00 in0.0 mm 0.00 in0.0 mm 0.00 in0.0 mm
02:10 AM 3.1°F-16.1°C -1.4°F-18.6°C 81% 3.0 mph N4.8 kmh N 10.0 mph16.1 kmh 30.43 in1030.5 mb 0.00 in0.0 mm 0.00 in0.0 mm 0.00 in0.0 mm
02:05 AM 3.3°F-15.9°C -1.2°F-18.4°C 81% 3.0 mph NW4.8 kmh NW 10.0 mph16.1 kmh 30.42 in1030.1 mb 0.00 in0.0 mm 0.00 in0.0 mm 0.00 in0.0 mm
02:00 AM 3.4°F-15.9°C -0.9°F-18.3°C 82% 3.0 mph N4.8 kmh N 8.0 mph12.9 kmh 30.41 in1029.8 mb 0.00 in0.0 mm 0.00 in0.0 mm 0.00 in0.0 mm
01:55 AM 3.6°F-15.8°C -0.7°F-18.2°C 82% 3.0 mph N4.8 kmh N 8.0 mph12.9 kmh 30.40 in1029.5 mb 0.00 in0.0 mm 0.00 in0.0 mm 0.00 in0.0 mm
01:50 AM 3.8°F-15.7°C -0.5°F-18.1°C 82% 3.0 mph WNW4.8 kmh WNW 8.0 mph12.9 kmh 30.40 in1029.5 mb 0.00 in0.0 mm 0.00 in0.0 mm 0.00 in0.0 mm
01:45 AM 4.0°F-15.6°C -0.3°F-17.9°C 82% 3.0 mph WNW4.8 kmh WNW 8.0 mph12.9 kmh 30.40 in1029.5 mb 0.00 in0.0 mm 0.00 in0.0 mm 0.00 in0.0 mm
01:40 AM 4.2°F-15.4°C 0.2°F-17.7°C 83% 4.0 mph NNW6.4 kmh NNW 9.0 mph14.5 kmh 30.39 in1029.1 mb 0.00 in0.0 mm 0.00 in0.0 mm 0.00 in0.0 mm
01:35 AM 4.4°F-15.3°C 0.1°F-17.7°C 82% 4.0 mph N6.4 kmh N 12.0 mph19.3 kmh 30.39 in1029.1 mb 0.00 in0.0 mm 0.00 in0.0 mm 0.00 in0.0 mm
01:30 AM 4.6°F-15.2°C 0.6°F-17.4°C 83% 3.0 mph N4.8 kmh N 12.0 mph19.3 kmh 30.38 in1028.8 mb 0.00 in0.0 mm 0.00 in0.0 mm 0.00 in0.0 mm
01:25 AM 4.7°F-15.2°C 0.7°F-17.4°C 83% 2.0 mph N3.2 kmh N 8.0 mph12.9 kmh 30.38 in1028.8 mb 0.00 in0.0 mm 0.00 in0.0 mm 0.00 in0.0 mm
01:20 AM 4.8°F-15.1°C 0.8°F-17.3°C 83% 3.0 mph N4.8 kmh N 8.0 mph12.9 kmh 30.37 in1028.4 mb 0.00 in0.0 mm 0.00 in0.0 mm 0.00 in0.0 mm
01:15 AM 4.8°F-15.1°C 0.8°F-17.3°C 83% 3.0 mph NW4.8 kmh NW 8.0 mph12.9 kmh 30.37 in1028.4 mb 0.00 in0.0 mm 0.00 in0.0 mm 0.00 in0.0 mm
01:10 AM 4.8°F-15.1°C 0.8°F-17.3°C 83% 3.0 mph NNW4.8 kmh NNW 8.0 mph12.9 kmh 30.37 in1028.4 mb 0.00 in0.0 mm 0.00 in0.0 mm 0.00 in0.0 mm
01:05 AM 4.9°F-15.1°C 0.9°F-17.3°C 83% 3.0 mph N4.8 kmh N 9.0 mph14.5 kmh 30.36 in1028.1 mb 0.00 in0.0 mm 0.00 in0.0 mm 0.00 in0.0 mm
01:00 AM 4.9°F-15.1°C 0.9°F-17.3°C 83% 3.0 mph NNW4.8 kmh NNW 10.0 mph16.1 kmh 30.36 in1028.1 mb 0.00 in0.0 mm 0.00 in0.0 mm 0.00 in0.0 mm
12:55 AM 5.0°F-15.0°C 1.0°F-17.2°C 83% 3.0 mph NW4.8 kmh NW 10.0 mph16.1 kmh 30.35 in1027.8 mb 0.00 in0.0 mm 0.00 in0.0 mm 0.00 in0.0 mm
12:50 AM 5.2°F-14.9°C 1.4°F-17.0°C 84% 3.0 mph NNW4.8 kmh NNW 9.0 mph14.5 kmh 30.35 in1027.8 mb 0.00 in0.0 mm 0.00 in0.0 mm 0.00 in0.0 mm
12:45 AM 5.4°F-14.8°C 1.6°F-16.9°C 84% 3.0 mph N4.8 kmh N 9.0 mph14.5 kmh 30.34 in1027.4 mb 0.00 in0.0 mm 0.00 in0.0 mm 0.00 in0.0 mm
12:40 AM 5.6°F-14.7°C 2.1°F-16.6°C 85% 3.0 mph N4.8 kmh N 7.0 mph11.3 kmh 30.34 in1027.4 mb 0.00 in0.0 mm 0.00 in0.0 mm 0.00 in0.0 mm
12:35 AM 5.8°F-14.6°C 2.3°F-16.5°C 85% 2.0 mph N3.2 kmh N 6.0 mph9.7 kmh 30.34 in1027.4 mb 0.00 in0.0 mm 0.00 in0.0 mm 0.00 in0.0 mm
12:30 AM 5.9°F-14.5°C 2.6°F-16.3°C 86% 1.0 mph N1.6 kmh N 9.0 mph14.5 kmh 30.33 in1027.1 mb 0.00 in0.0 mm 0.00 in0.0 mm 0.00 in0.0 mm
12:25 AM 5.9°F-14.5°C 2.4°F-16.4°C 85% 2.0 mph N3.2 kmh N 9.0 mph14.5 kmh 30.33 in1027.1 mb 0.00 in0.0 mm 0.00 in0.0 mm 0.00 in0.0 mm
12:20 AM 5.9°F-14.5°C 2.1°F-16.6°C 84% 2.0 mph NNE3.2 kmh NNE 8.0 mph12.9 kmh 30.32 in1026.8 mb 0.00 in0.0 mm 0.00 in0.0 mm 0.00 in0.0 mm
12:15 AM 6.0°F-14.4°C 2.2°F-16.6°C 84% 2.0 mph NNE3.2 kmh NNE 7.0 mph11.3 kmh 30.32 in1026.8 mb 0.00 in0.0 mm 0.00 in0.0 mm 0.00 in0.0 mm
12:10 AM 6.0°F-14.4°C 2.2°F-16.6°C 84% 2.0 mph N3.2 kmh N 7.0 mph11.3 kmh 30.32 in1026.8 mb 0.00 in0.0 mm 0.00 in0.0 mm 0.00 in0.0 mm
12:05 AM 6.2°F-14.3°C 2.4°F-16.4°C 84% 2.0 mph NNW3.2 kmh NNW 7.0 mph11.3 kmh 30.31 in1026.4 mb 0.00 in0.0 mm 0.00 in0.0 mm 0.00 in0.0 mm
12:00 AM 6.3°F-14.3°C 2.5°F-16.4°C 84% 2.0 mph N3.2 kmh N 7.0 mph11.3 kmh 30.31 in1026.4 mb 0.00 in0.0 mm 0.00 in0.0 mm 0.00 in0.0 mm